Terminal Aerodrome Forecast
Issued by NWS Twin Cities, MN

Home | Current Version | Previous Version | Graphics & Text | Print | Product List | Glossary On
Versions: 1 2 3 4 5 6 7 8 9 10 11 12 13 14 15 16 17
522
FTUS43 KMPX 202339
TAFEAU
TAF
KEAU 202339Z 2100/2124 00000KT P6SM OVC110
     FM210800 00000KT 4SM BR OVC080
      TEMPO 2110/2114 2SM BR BKN005
     FM212300 04005KT P6SM OVC030=

USA.gov is the U.S. government's official web portal to all federal, state and local government web resources and services.